sensor_id;sensor_type;location;lat;lon;timestamp;pressure;altitude;pressure_sealevel;temperature;humidity
15267;BME280;7735;49.144;8.668;2023-05-24T00:01:13;100571.63;;;18.28;44.55
15267;BME280;7735;49.144;8.668;2023-05-24T00:03:40;100571.75;;;18.25;44.65
15267;BME280;7735;49.144;8.668;2023-05-24T00:06:10;100570.22;;;18.18;45.08
15267;BME280;7735;49.144;8.668;2023-05-24T00:08:39;100565.03;;;18.15;45.59
15267;BME280;7735;49.144;8.668;2023-05-24T00:11:05;100565.97;;;18.14;45.61
15267;BME280;7735;49.144;8.668;2023-05-24T00:13:32;100555.56;;;18.09;45.71
15267;BME280;7735;49.144;8.668;2023-05-24T00:15:58;100552.91;;;18.09;45.83
15267;BME280;7735;49.144;8.668;2023-05-24T00:18:25;100554.69;;;18.09;45.67
15267;BME280;7735;49.144;8.668;2023-05-24T00:20:51;100547.00;;;18.03;45.81
15267;BME280;7735;49.144;8.668;2023-05-24T00:23:21;100552.41;;;17.98;45.78
15267;BME280;7735;49.144;8.668;2023-05-24T00:25:49;100547.25;;;17.95;46.04
15267;BME280;7735;49.144;8.668;2023-05-24T00:28:16;100548.19;;;17.93;46.14
15267;BME280;7735;49.144;8.668;2023-05-24T00:30:43;100542.91;;;17.93;46.31
15267;BME280;7735;49.144;8.668;2023-05-24T00:33:09;100547.47;;;17.88;46.31
15267;BME280;7735;49.144;8.668;2023-05-24T00:35:36;100544.94;;;17.85;46.22
15267;BME280;7735;49.144;8.668;2023-05-24T00:38:03;100548.53;;;17.82;46.33
15267;BME280;7735;49.144;8.668;2023-05-24T00:40:29;100544.28;;;17.78;46.38
15267;BME280;7735;49.144;8.668;2023-05-24T00:42:57;100532.94;;;17.74;46.28
15267;BME280;7735;49.144;8.668;2023-05-24T00:45:24;100540.91;;;17.73;46.28
15267;BME280;7735;49.144;8.668;2023-05-24T00:47:50;100540.13;;;17.69;46.30
15267;BME280;7735;49.144;8.668;2023-05-24T00:50:17;100542.81;;;17.66;46.75
15267;BME280;7735;49.144;8.668;2023-05-24T00:52:46;100535.88;;;17.64;46.40
15267;BME280;7735;49.144;8.668;2023-05-24T00:55:13;100530.78;;;17.58;46.42
15267;BME280;7735;49.144;8.668;2023-05-24T00:57:40;100527.50;;;17.51;46.47
15267;BME280;7735;49.144;8.668;2023-05-24T01:00:10;100524.19;;;17.44;46.71
15267;BME280;7735;49.144;8.668;2023-05-24T01:02:37;100526.19;;;17.36;46.88
15267;BME280;7735;49.144;8.668;2023-05-24T01:05:04;100521.16;;;17.28;46.95
15267;BME280;7735;49.144;8.668;2023-05-24T01:07:38;100522.28;;;17.20;47.33
15267;BME280;7735;49.144;8.668;2023-05-24T01:10:15;100518.94;;;17.13;47.50
15267;BME280;7735;49.144;8.668;2023-05-24T01:12:52;100515.50;;;17.11;47.51
15267;BME280;7735;49.144;8.668;2023-05-24T01:15:32;100519.22;;;17.04;47.70
15267;BME280;7735;49.144;8.668;2023-05-24T01:18:06;100526.34;;;17.01;47.92
15267;BME280;7735;49.144;8.668;2023-05-24T01:20:35;100531.56;;;17.02;47.81
15267;BME280;7735;49.144;8.668;2023-05-24T01:23:06;100533.38;;;17.00;47.98
15267;BME280;7735;49.144;8.668;2023-05-24T01:25:59;100535.84;;;17.05;47.88
15267;BME280;7735;49.144;8.668;2023-05-24T01:28:30;100538.47;;;17.06;47.69
15267;BME280;7735;49.144;8.668;2023-05-24T01:30:58;100533.13;;;17.09;47.62
15267;BME280;7735;49.144;8.668;2023-05-24T01:33:26;100528.66;;;17.11;47.57
15267;BME280;7735;49.144;8.668;2023-05-24T01:35:52;100531.28;;;17.11;47.49
15267;BME280;7735;49.144;8.668;2023-05-24T01:38:19;100541.81;;;17.11;47.48
15267;BME280;7735;49.144;8.668;2023-05-24T01:40:47;100537.47;;;17.10;47.49
15267;BME280;7735;49.144;8.668;2023-05-24T01:43:21;100538.31;;;17.11;47.52
15267;BME280;7735;49.144;8.668;2023-05-24T01:45:56;100545.34;;;17.10;47.31
15267;BME280;7735;49.144;8.668;2023-05-24T01:48:35;100550.63;;;17.10;47.34
15267;BME280;7735;49.144;8.668;2023-05-24T01:51:06;100545.31;;;17.12;47.32
15267;BME280;7735;49.144;8.668;2023-05-24T01:53:35;100549.66;;;17.13;47.27
15267;BME280;7735;49.144;8.668;2023-05-24T01:56:05;100547.03;;;17.13;47.30
15267;BME280;7735;49.144;8.668;2023-05-24T01:58:33;100560.19;;;17.13;47.35
15267;BME280;7735;49.144;8.668;2023-05-24T02:01:03;100560.19;;;17.13;47.39
15267;BME280;7735;49.144;8.668;2023-05-24T02:03:30;100567.25;;;17.11;47.40
15267;BME280;7735;49.144;8.668;2023-05-24T02:05:57;100559.47;;;17.08;47.28
15267;BME280;7735;49.144;8.668;2023-05-24T02:08:24;100560.31;;;17.08;47.25
15267;BME280;7735;49.144;8.668;2023-05-24T02:10:50;100565.63;;;17.07;47.36
15267;BME280;7735;49.144;8.668;2023-05-24T02:13:17;100566.53;;;17.06;47.41
15267;BME280;7735;49.144;8.668;2023-05-24T02:15:44;100571.81;;;17.04;47.45
15267;BME280;7735;49.144;8.668;2023-05-24T02:18:13;100571.81;;;17.04;47.41
15267;BME280;7735;49.144;8.668;2023-05-24T02:20:43;100564.78;;;17.05;47.28
15267;BME280;7735;49.144;8.668;2023-05-24T02:23:10;100564.78;;;17.06;47.22
15267;BME280;7735;49.144;8.668;2023-05-24T02:25:36;100568.22;;;17.08;47.23
15267;BME280;7735;49.144;8.668;2023-05-24T02:28:03;100569.03;;;17.10;47.00
15267;BME280;7735;49.144;8.668;2023-05-24T02:30:29;100575.19;;;17.09;46.85
15267;BME280;7735;49.144;8.668;2023-05-24T02:32:56;100567.31;;;17.09;46.86
15267;BME280;7735;49.144;8.668;2023-05-24T02:35:24;100564.78;;;17.05;47.14
15267;BME280;7735;49.144;8.668;2023-05-24T02:37:51;100569.25;;;17.03;47.43
15267;BME280;7735;49.144;8.668;2023-05-24T02:40:18;100566.66;;;17.01;47.69
15267;BME280;7735;49.144;8.668;2023-05-24T02:42:44;100566.72;;;16.99;47.69
15267;BME280;7735;49.144;8.668;2023-05-24T02:45:11;100567.63;;;16.98;48.02
15267;BME280;7735;49.144;8.668;2023-05-24T02:47:37;100567.66;;;16.97;48.38
15267;BME280;7735;49.144;8.668;2023-05-24T02:50:05;100565.91;;;16.96;48.64
15267;BME280;7735;49.144;8.668;2023-05-24T02:52:33;100566.81;;;16.95;48.77
15267;BME280;7735;49.144;8.668;2023-05-24T02:55:00;100566.81;;;16.95;48.81
15267;BME280;7735;49.144;8.668;2023-05-24T02:57:27;100566.91;;;16.92;48.83
15267;BME280;7735;49.144;8.668;2023-05-24T02:59:54;100563.47;;;16.90;48.77
15267;BME280;7735;49.144;8.668;2023-05-24T03:02:21;100563.53;;;16.87;48.85
15267;BME280;7735;49.144;8.668;2023-05-24T03:04:47;100560.09;;;16.85;48.94
15267;BME280;7735;49.144;8.668;2023-05-24T03:07:14;100560.19;;;16.82;49.11
15267;BME280;7735;49.144;8.668;2023-05-24T03:09:42;100552.34;;;16.80;49.01
15267;BME280;7735;49.144;8.668;2023-05-24T03:12:09;100546.28;;;16.77;49.05
15267;BME280;7735;49.144;8.668;2023-05-24T03:14:35;100549.91;;;16.73;49.13
15267;BME280;7735;49.144;8.668;2023-05-24T03:17:02;100549.03;;;16.72;49.14
15267;BME280;7735;49.144;8.668;2023-05-24T03:19:28;100547.31;;;16.71;49.29
15267;BME280;7735;49.144;8.668;2023-05-24T03:21:55;100549.09;;;16.69;49.37
15267;BME280;7735;49.144;8.668;2023-05-24T03:24:22;100548.28;;;16.65;49.67
15267;BME280;7735;49.144;8.668;2023-05-24T03:27:00;100540.47;;;16.64;49.80
15267;BME280;7735;49.144;8.668;2023-05-24T03:29:27;100545.00;;;16.57;49.79
15267;BME280;7735;49.144;8.668;2023-05-24T03:31:54;100548.69;;;16.50;50.08
15267;BME280;7735;49.144;8.668;2023-05-24T03:34:20;100547.97;;;16.45;50.07
15267;BME280;7735;49.144;8.668;2023-05-24T03:36:47;100543.66;;;16.41;50.24
15267;BME280;7735;49.144;8.668;2023-05-24T03:39:14;100536.81;;;16.34;50.21
15267;BME280;7735;49.144;8.668;2023-05-24T03:41:40;100536.81;;;16.34;50.28
15267;BME280;7735;49.144;8.668;2023-05-24T03:44:08;100537.72;;;16.33;50.30
15267;BME280;7735;49.144;8.668;2023-05-24T03:46:35;100542.13;;;16.32;50.25
15267;BME280;7735;49.144;8.668;2023-05-24T03:49:02;100545.63;;;16.33;50.12
15267;BME280;7735;49.144;8.668;2023-05-24T03:51:28;100547.34;;;16.34;50.20
15267;BME280;7735;49.144;8.668;2023-05-24T03:53:55;100552.59;;;16.34;49.81
15267;BME280;7735;49.144;8.668;2023-05-24T03:56:22;100558.69;;;16.36;49.77
15267;BME280;7735;49.144;8.668;2023-05-24T03:58:49;100561.19;;;16.40;49.66
15267;BME280;7735;49.144;8.668;2023-05-24T04:01:19;100558.53;;;16.42;49.73
15267;BME280;7735;49.144;8.668;2023-05-24T04:03:45;100561.09;;;16.45;49.56
15267;BME280;7735;49.144;8.668;2023-05-24T04:06:12;100568.94;;;16.47;49.54
15267;BME280;7735;49.144;8.668;2023-05-24T04:08:39;100568.84;;;16.50;49.40
15267;BME280;7735;49.144;8.668;2023-05-24T04:11:06;100564.22;;;16.59;49.19
15267;BME280;7735;49.144;8.668;2023-05-24T04:13:32;100566.69;;;16.65;48.98
15267;BME280;7735;49.144;8.668;2023-05-24T04:15:59;100572.78;;;16.67;48.97
15267;BME280;7735;49.144;8.668;2023-05-24T04:18:27;100570.31;;;16.61;49.25
15267;BME280;7735;49.144;8.668;2023-05-24T04:20:53;100562.59;;;16.55;49.08
15267;BME280;7735;49.144;8.668;2023-05-24T04:23:20;100568.00;;;16.49;49.34
15267;BME280;7735;49.144;8.668;2023-05-24T04:25:47;100562.81;;;16.46;49.31
15267;BME280;7735;49.144;8.668;2023-05-24T04:28:14;100561.97;;;16.46;49.40
15267;BME280;7735;49.144;8.668;2023-05-24T04:30:40;100562.88;;;16.45;49.34
15267;BME280;7735;49.144;8.668;2023-05-24T04:33:10;100564.63;;;16.44;49.28
15267;BME280;7735;49.144;8.668;2023-05-24T04:35:38;100569.88;;;16.44;49.17
15267;BME280;7735;49.144;8.668;2023-05-24T04:38:04;100568.94;;;16.47;48.99
15267;BME280;7735;49.144;8.668;2023-05-24T04:40:31;100570.75;;;16.45;49.13
15267;BME280;7735;49.144;8.668;2023-05-24T04:42:58;100575.19;;;16.41;49.30
15267;BME280;7735;49.144;8.668;2023-05-24T04:45:25;100573.47;;;16.40;49.29
15267;BME280;7735;49.144;8.668;2023-05-24T04:47:51;100570.88;;;16.38;49.01
15267;BME280;7735;49.144;8.668;2023-05-24T04:50:18;100573.56;;;16.37;48.66
15267;BME280;7735;49.144;8.668;2023-05-24T04:52:52;100583.16;;;16.38;48.66
15267;BME280;7735;49.144;8.668;2023-05-24T04:55:20;100572.66;;;16.38;48.70
15267;BME280;7735;49.144;8.668;2023-05-24T04:57:46;100577.91;;;16.38;48.77
15267;BME280;7735;49.144;8.668;2023-05-24T05:00:14;100577.00;;;16.39;48.68
15267;BME280;7735;49.144;8.668;2023-05-24T05:02:41;100577.06;;;16.37;48.73
15267;BME280;7735;49.144;8.668;2023-05-24T05:05:08;100574.44;;;16.37;48.84
15267;BME280;7735;49.144;8.668;2023-05-24T05:07:35;100576.09;;;16.40;48.68
15267;BME280;7735;49.144;8.668;2023-05-24T05:10:05;100576.88;;;16.45;48.50
15267;BME280;7735;49.144;8.668;2023-05-24T05:12:32;100574.25;;;16.45;48.38
15267;BME280;7735;49.144;8.668;2023-05-24T05:14:58;100574.25;;;16.45;48.07
15267;BME280;7735;49.144;8.668;2023-05-24T05:17:28;100580.41;;;16.44;47.67
15267;BME280;7735;49.144;8.668;2023-05-24T05:19:54;100578.66;;;16.43;47.38
15267;BME280;7735;49.144;8.668;2023-05-24T05:22:21;100589.25;;;16.40;46.85
15267;BME280;7735;49.144;8.668;2023-05-24T05:24:48;100577.91;;;16.38;46.82
15267;BME280;7735;49.144;8.668;2023-05-24T05:27:16;100581.44;;;16.37;47.23
15267;BME280;7735;49.144;8.668;2023-05-24T05:29:42;100584.06;;;16.37;47.41
15267;BME280;7735;49.144;8.668;2023-05-24T05:32:09;100575.28;;;16.38;47.33
15267;BME280;7735;49.144;8.668;2023-05-24T05:34:35;100575.28;;;16.38;47.49
15267;BME280;7735;49.144;8.668;2023-05-24T05:37:02;100577.88;;;16.39;47.75
15267;BME280;7735;49.144;8.668;2023-05-24T05:39:29;100581.41;;;16.38;47.84
15267;BME280;7735;49.144;8.668;2023-05-24T05:42:11;100583.22;;;16.36;48.57
15267;BME280;7735;49.144;8.668;2023-05-24T05:44:39;100584.16;;;16.32;48.81
15267;BME280;7735;49.144;8.668;2023-05-24T05:47:06;100594.75;;;16.29;48.93
15267;BME280;7735;49.144;8.668;2023-05-24T05:49:33;100590.44;;;16.27;49.25
15267;BME280;7735;49.144;8.668;2023-05-24T05:52:01;100589.69;;;16.22;49.22
15267;BME280;7735;49.144;8.668;2023-05-24T05:54:27;100590.56;;;16.22;49.10
15267;BME280;7735;49.144;8.668;2023-05-24T05:56:55;100589.69;;;16.22;49.04
15267;BME280;7735;49.144;8.668;2023-05-24T05:59:22;100598.47;;;16.21;48.83
15267;BME280;7735;49.144;8.668;2023-05-24T06:01:50;100598.69;;;16.11;48.15
15267;BME280;7735;49.144;8.668;2023-05-24T06:04:17;100592.50;;;16.14;48.06
15267;BME280;7735;49.144;8.668;2023-05-24T06:06:44;100596.63;;;16.26;47.74
15267;BME280;7735;49.144;8.668;2023-05-24T06:09:13;100607.84;;;16.31;47.46
15267;BME280;7735;49.144;8.668;2023-05-24T06:11:40;100607.81;;;16.32;47.26
15267;BME280;7735;49.144;8.668;2023-05-24T06:14:09;100602.59;;;16.31;47.06
15267;BME280;7735;49.144;8.668;2023-05-24T06:16:36;100610.69;;;16.22;47.07
15267;BME280;7735;49.144;8.668;2023-05-24T06:19:07;100608.38;;;16.09;47.34
15267;BME280;7735;49.144;8.668;2023-05-24T06:21:34;100601.41;;;16.08;47.26
15267;BME280;7735;49.144;8.668;2023-05-24T06:24:01;100607.47;;;16.10;47.45
15267;BME280;7735;49.144;8.668;2023-05-24T06:26:28;100609.28;;;16.08;47.56
15267;BME280;7735;49.144;8.668;2023-05-24T06:28:55;100601.41;;;16.07;47.53
15267;BME280;7735;49.144;8.668;2023-05-24T06:31:22;100602.47;;;15.98;47.68
15267;BME280;7735;49.144;8.668;2023-05-24T06:33:48;100608.66;;;15.96;47.88
15267;BME280;7735;49.144;8.668;2023-05-24T06:36:16;100609.50;;;15.99;47.67
15267;BME280;7735;49.144;8.668;2023-05-24T06:38:43;100611.06;;;16.06;47.70
15267;BME280;7735;49.144;8.668;2023-05-24T06:41:09;100618.91;;;16.08;47.81
15267;BME280;7735;49.144;8.668;2023-05-24T06:43:36;100625.91;;;16.09;47.79
15267;BME280;7735;49.144;8.668;2023-05-24T06:46:05;100616.16;;;16.12;47.81
15267;BME280;7735;49.144;8.668;2023-05-24T06:48:31;100625.69;;;16.18;47.55
15267;BME280;7735;49.144;8.668;2023-05-24T06:50:58;100627.28;;;16.24;47.57
15267;BME280;7735;49.144;8.668;2023-05-24T06:53:26;100627.19;;;16.28;47.52
15267;BME280;7735;49.144;8.668;2023-05-24T06:55:53;100635.13;;;16.27;47.46
15267;BME280;7735;49.144;8.668;2023-05-24T06:58:19;100629.91;;;16.24;47.51
15267;BME280;7735;49.144;8.668;2023-05-24T07:00:47;100636.03;;;16.26;47.53
15267;BME280;7735;49.144;8.668;2023-05-24T07:03:14;100648.22;;;16.28;47.44
15267;BME280;7735;49.144;8.668;2023-05-24T07:05:41;100637.97;;;16.16;47.27
15267;BME280;7735;49.144;8.668;2023-05-24T07:08:07;100647.97;;;16.00;47.43
15267;BME280;7735;49.144;8.668;2023-05-24T07:10:36;100643.66;;;15.96;47.59
15267;BME280;7735;49.144;8.668;2023-05-24T07:13:02;100648.19;;;15.91;47.78
15267;BME280;7735;49.144;8.668;2023-05-24T07:15:29;100649.03;;;15.92;47.92
15267;BME280;7735;49.144;8.668;2023-05-24T07:17:56;100645.41;;;15.97;47.86
15267;BME280;7735;49.144;8.668;2023-05-24T07:20:23;100655.00;;;15.98;47.93
15267;BME280;7735;49.144;8.668;2023-05-24T07:22:49;100646.09;;;16.05;47.79
15267;BME280;7735;49.144;8.668;2023-05-24T07:25:17;100649.41;;;16.13;47.42
15267;BME280;7735;49.144;8.668;2023-05-24T07:27:45;100666.78;;;16.21;47.28
15267;BME280;7735;49.144;8.668;2023-05-24T07:30:12;100665.19;;;16.13;47.07
15267;BME280;7735;49.144;8.668;2023-05-24T07:32:39;100666.16;;;16.09;47.18
15267;BME280;7735;49.144;8.668;2023-05-24T07:35:06;100665.13;;;16.15;47.18
15267;BME280;7735;49.144;8.668;2023-05-24T07:37:33;100672.03;;;16.21;47.15
15267;BME280;7735;49.144;8.668;2023-05-24T07:40:00;100666.13;;;16.11;47.18
15267;BME280;7735;49.144;8.668;2023-05-24T07:42:27;100663.53;;;16.09;47.28
15267;BME280;7735;49.144;8.668;2023-05-24T07:44:55;100663.53;;;16.09;47.17
15267;BME280;7735;49.144;8.668;2023-05-24T07:47:21;100665.97;;;16.19;47.24
15267;BME280;7735;49.144;8.668;2023-05-24T07:49:48;100664.75;;;16.32;47.48
15267;BME280;7735;49.144;8.668;2023-05-24T07:52:15;100668.06;;;16.40;47.23
15267;BME280;7735;49.144;8.668;2023-05-24T07:54:41;100663.63;;;16.43;47.06
15267;BME280;7735;49.144;8.668;2023-05-24T07:57:08;100663.63;;;16.43;46.81
15267;BME280;7735;49.144;8.668;2023-05-24T07:59:34;100666.13;;;16.48;46.73
15267;BME280;7735;49.144;8.668;2023-05-24T08:02:03;100666.00;;;16.54;46.76
15267;BME280;7735;49.144;8.668;2023-05-24T08:04:30;100661.47;;;16.61;46.40
15267;BME280;7735;49.144;8.668;2023-05-24T08:06:57;100672.66;;;16.70;46.41
15267;BME280;7735;49.144;8.668;2023-05-24T08:09:26;100668.94;;;16.78;46.14
15267;BME280;7735;49.144;8.668;2023-05-24T08:11:54;100666.19;;;16.84;46.00
15267;BME280;7735;49.144;8.668;2023-05-24T08:14:20;100659.91;;;16.89;45.87
15267;BME280;7735;49.144;8.668;2023-05-24T08:16:47;100662.59;;;16.86;45.46
15267;BME280;7735;49.144;8.668;2023-05-24T08:19:15;100660.06;;;16.83;45.49
15267;BME280;7735;49.144;8.668;2023-05-24T08:21:45;100654.94;;;16.79;45.49
15267;BME280;7735;49.144;8.668;2023-05-24T08:24:12;100653.13;;;16.81;45.38
15267;BME280;7735;49.144;8.668;2023-05-24T08:26:38;100652.94;;;16.87;45.27
15267;BME280;7735;49.144;8.668;2023-05-24T08:29:05;100657.31;;;16.88;45.29
15267;BME280;7735;49.144;8.668;2023-05-24T08:31:32;100653.78;;;16.89;45.33
15267;BME280;7735;49.144;8.668;2023-05-24T08:33:58;100659.78;;;16.94;45.19
15267;BME280;7735;49.144;8.668;2023-05-24T08:36:26;100663.31;;;16.93;44.96
15267;BME280;7735;49.144;8.668;2023-05-24T08:38:53;100664.19;;;16.93;44.96
15267;BME280;7735;49.144;8.668;2023-05-24T08:41:20;100665.91;;;16.94;44.85
15267;BME280;7735;49.144;8.668;2023-05-24T08:43:47;100665.91;;;16.94;44.94
15267;BME280;7735;49.144;8.668;2023-05-24T08:46:16;100667.63;;;16.95;44.85
15267;BME280;7735;49.144;8.668;2023-05-24T08:48:45;100662.34;;;16.97;44.85
15267;BME280;7735;49.144;8.668;2023-05-24T08:51:13;100665.66;;;17.04;44.82
15267;BME280;7735;49.144;8.668;2023-05-24T08:53:43;100666.34;;;17.12;44.60
15267;BME280;7735;49.144;8.668;2023-05-24T08:56:13;100667.16;;;17.14;44.34
15267;BME280;7735;49.144;8.668;2023-05-24T08:58:42;100668.00;;;17.16;43.99
15267;BME280;7735;49.144;8.668;2023-05-24T09:01:10;100660.88;;;17.19;43.93
15267;BME280;7735;49.144;8.668;2023-05-24T09:03:37;100663.22;;;17.30;43.87
15267;BME280;7735;49.144;8.668;2023-05-24T09:06:08;100664.47;;;17.49;43.03
15267;BME280;7735;49.144;8.668;2023-05-24T09:08:35;100660.22;;;17.44;42.93
15267;BME280;7735;49.144;8.668;2023-05-24T09:11:04;100664.63;;;17.43;43.06
15267;BME280;7735;49.144;8.668;2023-05-24T09:13:33;100661.94;;;17.45;42.96
15267;BME280;7735;49.144;8.668;2023-05-24T09:16:00;100660.13;;;17.47;42.63
15267;BME280;7735;49.144;8.668;2023-05-24T09:18:27;100666.25;;;17.47;42.26
15267;BME280;7735;49.144;8.668;2023-05-24T09:20:54;100661.94;;;17.45;42.12
15267;BME280;7735;49.144;8.668;2023-05-24T09:23:21;100658.31;;;17.49;41.88
15267;BME280;7735;49.144;8.668;2023-05-24T09:25:48;100662.69;;;17.48;41.58
15267;BME280;7735;49.144;8.668;2023-05-24T09:28:17;100667.09;;;17.48;41.05
15267;BME280;7735;49.144;8.668;2023-05-24T09:30:56;100658.22;;;17.52;41.05
15267;BME280;7735;49.144;8.668;2023-05-24T09:33:27;100664.09;;;17.62;41.32
15267;BME280;7735;49.144;8.668;2023-05-24T09:35:56;100665.59;;;17.72;41.27
15267;BME280;7735;49.144;8.668;2023-05-24T09:38:23;100669.03;;;17.74;41.14
15267;BME280;7735;49.144;8.668;2023-05-24T09:40:58;100660.09;;;17.79;40.78
15267;BME280;7735;49.144;8.668;2023-05-24T09:43:26;100677.53;;;17.83;40.27
15267;BME280;7735;49.144;8.668;2023-05-24T09:45:54;100663.88;;;17.69;39.70
15267;BME280;7735;49.144;8.668;2023-05-24T09:48:22;100667.50;;;17.65;40.04
15267;BME280;7735;49.144;8.668;2023-05-24T09:50:57;100662.91;;;17.73;39.91
15267;BME280;7735;49.144;8.668;2023-05-24T09:53:25;100651.28;;;17.80;39.70
15267;BME280;7735;49.144;8.668;2023-05-24T09:55:53;100649.41;;;17.84;39.29
15267;BME280;7735;49.144;8.668;2023-05-24T09:58:21;100644.34;;;17.78;39.10
15267;BME280;7735;49.144;8.668;2023-05-24T10:00:49;100655.69;;;17.80;39.17
15267;BME280;7735;49.144;8.668;2023-05-24T10:03:15;100648.56;;;17.83;38.78
15267;BME280;7735;49.144;8.668;2023-05-24T10:05:44;100639.69;;;17.88;38.33
15267;BME280;7735;49.144;8.668;2023-05-24T10:08:11;100632.47;;;17.93;38.01
15267;BME280;7735;49.144;8.668;2023-05-24T10:10:38;100626.06;;;18.03;37.96
15267;BME280;7735;49.144;8.668;2023-05-24T10:13:08;100630.19;;;18.10;37.30
15267;BME280;7735;49.144;8.668;2023-05-24T10:15:35;100628.25;;;18.17;37.34
15267;BME280;7735;49.144;8.668;2023-05-24T10:18:03;100625.25;;;18.29;37.58
15267;BME280;7735;49.144;8.668;2023-05-24T10:20:32;100623.13;;;18.40;37.61
15267;BME280;7735;49.144;8.668;2023-05-24T10:23:02;100620.00;;;18.54;37.55
15267;BME280;7735;49.144;8.668;2023-05-24T10:25:32;100623.22;;;18.63;37.21
15267;BME280;7735;49.144;8.668;2023-05-24T10:28:02;100615.06;;;18.71;37.32
15267;BME280;7735;49.144;8.668;2023-05-24T10:30:33;100623.50;;;18.82;37.20
15267;BME280;7735;49.144;8.668;2023-05-24T10:33:04;100616.22;;;18.89;36.90
15267;BME280;7735;49.144;8.668;2023-05-24T10:35:34;100619.63;;;18.92;36.67
15267;BME280;7735;49.144;8.668;2023-05-24T10:38:04;100632.72;;;18.95;36.38
15267;BME280;7735;49.144;8.668;2023-05-24T10:40:32;100622.22;;;18.94;35.94
15267;BME280;7735;49.144;8.668;2023-05-24T10:43:15;100616.13;;;18.92;35.69
15267;BME280;7735;49.144;8.668;2023-05-24T10:45:47;100610.09;;;18.88;35.82
15267;BME280;7735;49.144;8.668;2023-05-24T10:48:40;100603.09;;;18.87;35.90
15267;BME280;7735;49.144;8.668;2023-05-24T10:51:29;100597.81;;;19.12;35.80
15267;BME280;7735;49.144;8.668;2023-05-24T10:54:09;100597.03;;;19.59;35.58
15267;BME280;7735;49.144;8.668;2023-05-24T10:56:39;100595.75;;;19.69;35.34
15267;BME280;7735;49.144;8.668;2023-05-24T10:59:06;100603.09;;;19.61;35.09
15267;BME280;7735;49.144;8.668;2023-05-24T11:01:33;100599.47;;;19.40;34.86
15267;BME280;7735;49.144;8.668;2023-05-24T11:04:09;100605.25;;;19.26;35.23
15267;BME280;7735;49.144;8.668;2023-05-24T11:06:46;100600.94;;;19.23;35.50
15267;BME280;7735;49.144;8.668;2023-05-24T11:09:14;100599.66;;;19.10;35.64
15267;BME280;7735;49.144;8.668;2023-05-24T11:11:43;100605.16;;;19.04;36.17
15267;BME280;7735;49.144;8.668;2023-05-24T11:14:10;100605.16;;;19.04;35.87
15267;BME280;7735;49.144;8.668;2023-05-24T11:16:38;100599.97;;;19.01;35.54
15267;BME280;7735;49.144;8.668;2023-05-24T11:19:13;100601.78;;;18.99;35.50
15267;BME280;7735;49.144;8.668;2023-05-24T11:21:43;100597.59;;;18.93;35.43
15267;BME280;7735;49.144;8.668;2023-05-24T11:24:11;100588.91;;;18.91;35.57
15267;BME280;7735;49.144;8.668;2023-05-24T11:26:38;100594.16;;;18.91;35.38
15267;BME280;7735;49.144;8.668;2023-05-24T11:29:06;100585.22;;;18.95;35.05
15267;BME280;7735;49.144;8.668;2023-05-24T11:31:33;100576.38;;;18.96;34.99
15267;BME280;7735;49.144;8.668;2023-05-24T11:34:04;100587.53;;;19.05;35.12
15267;BME280;7735;49.144;8.668;2023-05-24T11:36:32;100581.06;;;19.13;35.11
15267;BME280;7735;49.144;8.668;2023-05-24T11:39:00;100582.69;;;19.17;35.03
15267;BME280;7735;49.144;8.668;2023-05-24T11:41:34;100586.06;;;19.21;35.09
15267;BME280;7735;49.144;8.668;2023-05-24T11:44:01;100591.69;;;19.12;35.05
15267;BME280;7735;49.144;8.668;2023-05-24T11:46:28;100580.47;;;19.05;35.08
15267;BME280;7735;49.144;8.668;2023-05-24T11:48:55;100583.16;;;19.04;34.90
15267;BME280;7735;49.144;8.668;2023-05-24T11:51:25;100584.25;;;18.98;34.96
15267;BME280;7735;49.144;8.668;2023-05-24T11:53:54;100578.34;;;18.91;34.80
15267;BME280;7735;49.144;8.668;2023-05-24T11:56:21;100579.28;;;18.89;34.86
15267;BME280;7735;49.144;8.668;2023-05-24T11:58:48;100578.66;;;18.82;34.89
15267;BME280;7735;49.144;8.668;2023-05-24T12:01:24;100569.56;;;18.91;34.78
15267;BME280;7735;49.144;8.668;2023-05-24T12:03:51;100569.19;;;19.02;34.55
15267;BME280;7735;49.144;8.668;2023-05-24T12:06:19;100566.16;;;19.12;34.33
15267;BME280;7735;49.144;8.668;2023-05-24T12:08:46;100577.28;;;19.20;34.61
15267;BME280;7735;49.144;8.668;2023-05-24T12:11:15;100573.78;;;19.20;34.39
15267;BME280;7735;49.144;8.668;2023-05-24T12:13:42;100569.19;;;19.25;34.19
15267;BME280;7735;49.144;8.668;2023-05-24T12:16:10;100560.06;;;19.34;34.14
15267;BME280;7735;49.144;8.668;2023-05-24T12:18:37;100558.97;;;19.39;33.90
15267;BME280;7735;49.144;8.668;2023-05-24T12:21:07;100565.06;;;19.41;34.06
15267;BME280;7735;49.144;8.668;2023-05-24T12:23:34;100560.72;;;19.40;34.19
15267;BME280;7735;49.144;8.668;2023-05-24T12:26:03;100562.44;;;19.41;34.32
15267;BME280;7735;49.144;8.668;2023-05-24T12:28:35;100554.78;;;19.34;33.98
15267;BME280;7735;49.144;8.668;2023-05-24T12:31:03;100552.00;;;19.38;33.98
15267;BME280;7735;49.144;8.668;2023-05-24T12:33:30;100548.78;;;19.53;34.10
15267;BME280;7735;49.144;8.668;2023-05-24T12:35:58;100546.66;;;19.63;33.73
15267;BME280;7735;49.144;8.668;2023-05-24T12:38:24;100543.69;;;19.72;33.36
15267;BME280;7735;49.144;8.668;2023-05-24T12:40:51;100545.94;;;19.82;33.30
15267;BME280;7735;49.144;8.668;2023-05-24T12:43:19;100541.28;;;19.88;32.80
15267;BME280;7735;49.144;8.668;2023-05-24T12:45:48;100543.56;;;19.97;32.57
15267;BME280;7735;49.144;8.668;2023-05-24T12:48:14;100536.97;;;20.07;32.56
15267;BME280;7735;49.144;8.668;2023-05-24T12:50:41;100532.03;;;20.20;32.19
15267;BME280;7735;49.144;8.668;2023-05-24T12:53:08;100530.69;;;20.32;31.94
15267;BME280;7735;49.144;8.668;2023-05-24T12:55:34;100528.84;;;20.34;31.68
15267;BME280;7735;49.144;8.668;2023-05-24T12:58:01;100526.84;;;20.39;32.20
15267;BME280;7735;49.144;8.668;2023-05-24T13:00:30;100518.84;;;20.41;32.16
15267;BME280;7735;49.144;8.668;2023-05-24T13:02:58;100529.50;;;20.39;32.21
15267;BME280;7735;49.144;8.668;2023-05-24T13:05:26;100518.50;;;20.50;31.87